ORBI/SDA METAR and TAF weather

Enter ICAO airport designator
Station Type Date Time Source
ORBI METAR 2019/10/21 23:00 UTC NOAA

ORBI 212300Z 02016G26KT CAVOK 22/13 Q1011 NOSIG


Station Type Date Time Source
ORBI Decoded METAR 2019/10/21 23:00 UTC NOAA

Station name not available
Oct 21, 2019 - 07:00 PM EDT / 2019.10.21 2300 UTC
Wind: from the NNE (020 degrees) at 18 MPH (16 KT) gusting to 30 MPH (26 KT):0
Visibility: greater than 7 mile(s):0
Temperature: 71 F (22 C)
Dew Point: 55 F (13 C)
Relative Humidity: 56%
Pressure (altimeter): 29.85 in. Hg (1011 hPa)
ob: ORBI 212300Z 02016G26KT CAVOK 22/13 Q1011 NOSIG
cycle: 23

Station Type Date Time Source
ORBI TAF 2019/10/21 18:20 UTC NOAA

TAF COR ORBI 211700Z 2118/2218 06008KT 8000 SCT040
TEMPO 2118/2202 - TSSHRA FEW025CB SCT030
BECMG 2204/2206 15010KT SCT040

Example: see airport list